sensor_id;sensor_type;location;lat;lon;timestamp;pressure;altitude;pressure_sealevel;temperature;humidity
13486;BME280;6815;59.336;17.998;2023-04-01T00:00:55;52182.97;;;-145.37;65.44
13486;BME280;6815;59.336;17.998;2023-04-01T00:03:22;52208.94;;;-145.37;65.56
13486;BME280;6815;59.336;17.998;2023-04-01T00:05:49;52202.94;;;-145.37;65.35
13486;BME280;6815;59.336;17.998;2023-04-01T00:08:17;52232.88;;;-145.37;65.34
13486;BME280;6815;59.336;17.998;2023-04-01T00:10:42;52196.94;;;-145.37;65.89
13486;BME280;6815;59.336;17.998;2023-04-01T00:13:09;52196.94;;;-145.37;65.22
13486;BME280;6815;59.336;17.998;2023-04-01T00:15:35;52177.00;;;-145.37;65.57
13486;BME280;6815;59.336;17.998;2023-04-01T00:18:01;52190.97;;;-145.37;65.62
13486;BME280;6815;59.336;17.998;2023-04-01T00:20:27;52143.06;;;-145.37;65.78
13486;BME280;6815;59.336;17.998;2023-04-01T00:22:52;52180.97;;;-145.37;65.90
13486;BME280;6815;59.336;17.998;2023-04-01T00:25:18;52202.94;;;-145.37;66.47
13486;BME280;6815;59.336;17.998;2023-04-01T00:27:44;52230.88;;;-145.37;66.22
13486;BME280;6815;59.336;17.998;2023-04-01T00:30:10;52242.88;;;-145.37;66.19
13486;BME280;6815;59.336;17.998;2023-04-01T00:32:36;52224.91;;;-145.37;67.16
13486;BME280;6815;59.336;17.998;2023-04-01T00:35:03;52186.97;;;-145.37;67.10
13486;BME280;6815;59.336;17.998;2023-04-01T00:37:29;52214.91;;;-145.37;66.94
13486;BME280;6815;59.336;17.998;2023-04-01T00:39:54;52190.97;;;-145.37;67.10
13486;BME280;6815;59.336;17.998;2023-04-01T00:42:20;52200.94;;;-145.37;67.20
13486;BME280;6815;59.336;17.998;2023-04-01T00:44:53;52210.91;;;-145.37;67.45
13486;BME280;6815;59.336;17.998;2023-04-01T00:47:20;52212.91;;;-145.37;67.24
13486;BME280;6815;59.336;17.998;2023-04-01T00:49:48;52155.03;;;-145.37;68.22
13486;BME280;6815;59.336;17.998;2023-04-01T00:52:17;52167.00;;;-145.37;67.56
13486;BME280;6815;59.336;17.998;2023-04-01T00:54:46;52204.94;;;-145.37;67.61
13486;BME280;6815;59.336;17.998;2023-04-01T00:57:24;52246.84;;;-145.37;67.30
13486;BME280;6815;59.336;17.998;2023-04-01T00:59:54;52224.91;;;-145.37;67.18
13486;BME280;6815;59.336;17.998;2023-04-01T01:02:20;52204.94;;;-145.37;67.06
13486;BME280;6815;59.336;17.998;2023-04-01T01:04:46;52204.94;;;-145.37;67.34
13486;BME280;6815;59.336;17.998;2023-04-01T01:12:45;52194.94;;;-145.37;67.31
13486;BME280;6815;59.336;17.998;2023-04-01T01:37:02;52212.91;;;-145.37;67.79
13486;BME280;6815;59.336;17.998;2023-04-01T01:39:31;52194.94;;;-145.37;67.68
13486;BME280;6815;59.336;17.998;2023-04-01T01:42:02;52218.91;;;-145.37;67.83
13486;BME280;6815;59.336;17.998;2023-04-01T01:44:30;52159.03;;;-145.37;68.27
13486;BME280;6815;59.336;17.998;2023-04-01T01:46:58;52212.91;;;-145.37;68.58
13486;BME280;6815;59.336;17.998;2023-04-01T01:49:25;52210.91;;;-145.37;68.14
13486;BME280;6815;59.336;17.998;2023-04-01T01:51:52;52184.97;;;-145.37;68.78
13486;BME280;6815;59.336;17.998;2023-04-01T01:54:18;52204.94;;;-145.37;68.95
13486;BME280;6815;59.336;17.998;2023-04-01T01:56:46;52173.00;;;-145.37;69.20
13486;BME280;6815;59.336;17.998;2023-04-01T01:59:15;52210.91;;;-145.37;69.13
13486;BME280;6815;59.336;17.998;2023-04-01T02:01:45;52226.91;;;-145.37;69.23
13486;BME280;6815;59.336;17.998;2023-04-01T02:04:13;52186.97;;;-145.37;69.51
13486;BME280;6815;59.336;17.998;2023-04-01T02:06:42;52202.94;;;-145.37;70.34
13486;BME280;6815;59.336;17.998;2023-04-01T02:09:14;52210.91;;;-145.37;70.13
13486;BME280;6815;59.336;17.998;2023-04-01T02:11:48;52186.97;;;-145.37;69.91
13486;BME280;6815;59.336;17.998;2023-04-01T02:14:23;52182.97;;;-145.37;70.02
13486;BME280;6815;59.336;17.998;2023-04-01T02:16:56;52188.97;;;-145.37;70.61
13486;BME280;6815;59.336;17.998;2023-04-01T02:19:31;52177.00;;;-145.37;71.63
13486;BME280;6815;59.336;17.998;2023-04-01T02:22:01;52198.94;;;-145.37;70.85
13486;BME280;6815;59.336;17.998;2023-04-01T02:24:30;52200.94;;;-145.37;70.55
13486;BME280;6815;59.336;17.998;2023-04-01T02:26:56;52190.97;;;-145.37;70.41
13486;BME280;6815;59.336;17.998;2023-04-01T02:29:26;52184.97;;;-145.37;70.63
13486;BME280;6815;59.336;17.998;2023-04-01T02:31:53;52184.97;;;-145.37;71.76
13486;BME280;6815;59.336;17.998;2023-04-01T02:34:21;52163.00;;;-145.37;71.00
13486;BME280;6815;59.336;17.998;2023-04-01T02:36:48;52175.00;;;-145.37;71.00
13486;BME280;6815;59.336;17.998;2023-04-01T02:39:15;52194.94;;;-145.37;71.15
13486;BME280;6815;59.336;17.998;2023-04-01T02:41:43;52184.97;;;-145.37;71.27
13486;BME280;6815;59.336;17.998;2023-04-01T02:44:10;52204.94;;;-145.37;71.34
13486;BME280;6815;59.336;17.998;2023-04-01T02:46:36;52210.91;;;-145.37;70.91
13486;BME280;6815;59.336;17.998;2023-04-01T02:49:03;52180.97;;;-145.37;71.61
13486;BME280;6815;59.336;17.998;2023-04-01T02:51:28;52200.94;;;-145.37;71.28
13486;BME280;6815;59.336;17.998;2023-04-01T02:53:54;52200.94;;;-145.37;71.54
13486;BME280;6815;59.336;17.998;2023-04-01T02:56:19;52200.94;;;-145.37;71.76
13486;BME280;6815;59.336;17.998;2023-04-01T02:58:45;52173.00;;;-145.37;71.85
13486;BME280;6815;59.336;17.998;2023-04-01T03:01:11;52208.94;;;-145.37;71.94
13486;BME280;6815;59.336;17.998;2023-04-01T03:03:37;52175.00;;;-145.37;71.71
13486;BME280;6815;59.336;17.998;2023-04-01T03:06:07;52220.91;;;-145.37;71.92
13486;BME280;6815;59.336;17.998;2023-04-01T03:08:33;52220.91;;;-145.37;72.21
13486;BME280;6815;59.336;17.998;2023-04-01T03:10:58;52190.97;;;-145.37;72.80
13486;BME280;6815;59.336;17.998;2023-04-01T03:13:24;52204.94;;;-145.37;73.09
13486;BME280;6815;59.336;17.998;2023-04-01T03:15:50;52178.97;;;-145.37;73.32
13486;BME280;6815;59.336;17.998;2023-04-01T03:18:16;52204.94;;;-145.37;72.69
13486;BME280;6815;59.336;17.998;2023-04-01T03:20:41;52192.97;;;-145.37;73.63
13486;BME280;6815;59.336;17.998;2023-04-01T03:23:07;52182.97;;;-145.37;73.62
13486;BME280;6815;59.336;17.998;2023-04-01T03:25:33;52175.00;;;-145.37;73.42
13486;BME280;6815;59.336;17.998;2023-04-01T03:27:59;52200.94;;;-145.37;73.19
13486;BME280;6815;59.336;17.998;2023-04-01T03:30:26;52196.94;;;-145.37;73.75
13486;BME280;6815;59.336;17.998;2023-04-01T03:32:52;52194.94;;;-145.37;74.13
13486;BME280;6815;59.336;17.998;2023-04-01T03:35:18;52214.91;;;-145.37;74.65
13486;BME280;6815;59.336;17.998;2023-04-01T03:37:43;52246.84;;;-145.37;74.36
13486;BME280;6815;59.336;17.998;2023-04-01T03:40:09;52192.97;;;-145.37;74.03
13486;BME280;6815;59.336;17.998;2023-04-01T03:42:35;52216.91;;;-145.37;73.26
13486;BME280;6815;59.336;17.998;2023-04-01T03:45:02;52194.94;;;-145.37;74.20
13486;BME280;6815;59.336;17.998;2023-04-01T03:47:28;52200.94;;;-145.37;73.94
13486;BME280;6815;59.336;17.998;2023-04-01T03:49:53;52224.91;;;-145.37;74.47
13486;BME280;6815;59.336;17.998;2023-04-01T03:52:20;52153.03;;;-145.37;74.01
13486;BME280;6815;59.336;17.998;2023-04-01T03:54:46;52224.91;;;-145.37;73.94
13486;BME280;6815;59.336;17.998;2023-04-01T03:57:11;52186.97;;;-145.37;75.31
13486;BME280;6815;59.336;17.998;2023-04-01T03:59:37;52175.00;;;-145.37;75.45
13486;BME280;6815;59.336;17.998;2023-04-01T04:02:03;52200.94;;;-145.37;75.02
13486;BME280;6815;59.336;17.998;2023-04-01T04:04:29;52153.03;;;-145.37;75.60
13486;BME280;6815;59.336;17.998;2023-04-01T04:06:55;52204.94;;;-145.37;74.95
13486;BME280;6815;59.336;17.998;2023-04-01T04:09:21;52216.91;;;-145.37;75.00
13486;BME280;6815;59.336;17.998;2023-04-01T04:11:48;52210.91;;;-145.37;74.90
13486;BME280;6815;59.336;17.998;2023-04-01T04:14:14;52206.94;;;-145.37;75.02
13486;BME280;6815;59.336;17.998;2023-04-01T04:16:39;52196.94;;;-145.37;75.07
13486;BME280;6815;59.336;17.998;2023-04-01T04:19:05;52212.91;;;-145.37;75.37
13486;BME280;6815;59.336;17.998;2023-04-01T04:21:31;52192.97;;;-145.37;75.32
13486;BME280;6815;59.336;17.998;2023-04-01T04:23:58;52200.94;;;-145.37;75.32
13486;BME280;6815;59.336;17.998;2023-04-01T04:26:24;52161.03;;;-145.37;75.55
13486;BME280;6815;59.336;17.998;2023-04-01T04:28:51;52206.94;;;-145.37;75.44
13486;BME280;6815;59.336;17.998;2023-04-01T04:31:21;52200.94;;;-145.37;75.63
13486;BME280;6815;59.336;17.998;2023-04-01T04:33:48;52194.94;;;-145.37;75.00
13486;BME280;6815;59.336;17.998;2023-04-01T04:36:14;52204.94;;;-145.37;75.83
13486;BME280;6815;59.336;17.998;2023-04-01T04:38:39;52208.94;;;-145.37;75.83
13486;BME280;6815;59.336;17.998;2023-04-01T04:41:12;52184.97;;;-145.37;75.90
13486;BME280;6815;59.336;17.998;2023-04-01T04:43:39;52169.00;;;-145.37;75.95
13486;BME280;6815;59.336;17.998;2023-04-01T04:46:09;52220.91;;;-145.37;76.88
13486;BME280;6815;59.336;17.998;2023-04-01T04:48:35;52212.91;;;-145.37;76.13
13486;BME280;6815;59.336;17.998;2023-04-01T04:51:01;52190.97;;;-145.37;76.30
13486;BME280;6815;59.336;17.998;2023-04-01T04:53:26;52175.00;;;-145.37;76.22
13486;BME280;6815;59.336;17.998;2023-04-01T04:55:52;52180.97;;;-145.37;76.12
13486;BME280;6815;59.336;17.998;2023-04-01T04:58:18;52188.97;;;-145.37;76.20
13486;BME280;6815;59.336;17.998;2023-04-01T05:00:44;52182.97;;;-145.37;76.27
13486;BME280;6815;59.336;17.998;2023-04-01T05:03:10;52236.88;;;-145.37;76.24
13486;BME280;6815;59.336;17.998;2023-04-01T05:05:36;52208.94;;;-145.37;76.18
13486;BME280;6815;59.336;17.998;2023-04-01T05:08:02;52208.94;;;-145.37;76.25
13486;BME280;6815;59.336;17.998;2023-04-01T05:10:28;52184.97;;;-145.37;76.34
13486;BME280;6815;59.336;17.998;2023-04-01T05:12:54;52218.91;;;-145.37;76.81
13486;BME280;6815;59.336;17.998;2023-04-01T05:15:19;52208.94;;;-145.37;76.74
13486;BME280;6815;59.336;17.998;2023-04-01T05:17:45;52216.91;;;-145.37;77.73
13486;BME280;6815;59.336;17.998;2023-04-01T05:20:12;52180.97;;;-145.37;76.88
13486;BME280;6815;59.336;17.998;2023-04-01T05:22:38;52220.91;;;-145.37;76.85
13486;BME280;6815;59.336;17.998;2023-04-01T05:25:04;52165.00;;;-145.37;76.77
13486;BME280;6815;59.336;17.998;2023-04-01T05:27:30;52204.94;;;-145.37;77.11
13486;BME280;6815;59.336;17.998;2023-04-01T05:29:56;52208.94;;;-145.37;77.65
13486;BME280;6815;59.336;17.998;2023-04-01T05:32:22;52266.81;;;-145.37;77.62
13486;BME280;6815;59.336;17.998;2023-04-01T05:34:50;52200.94;;;-145.37;77.01
13486;BME280;6815;59.336;17.998;2023-04-01T05:37:17;52171.00;;;-145.37;77.78
13486;BME280;6815;59.336;17.998;2023-04-01T05:39:43;52206.94;;;-145.37;77.43
13486;BME280;6815;59.336;17.998;2023-04-01T05:42:08;52178.97;;;-145.37;77.22
13486;BME280;6815;59.336;17.998;2023-04-01T05:44:35;52202.94;;;-145.37;77.08
13486;BME280;6815;59.336;17.998;2023-04-01T05:47:01;52192.97;;;-145.37;77.11
13486;BME280;6815;59.336;17.998;2023-04-01T05:49:28;52200.94;;;-145.37;76.76
13486;BME280;6815;59.336;17.998;2023-04-01T05:51:53;52182.97;;;-145.37;77.21
13486;BME280;6815;59.336;17.998;2023-04-01T05:54:19;52196.94;;;-145.37;77.07
13486;BME280;6815;59.336;17.998;2023-04-01T05:56:45;52228.88;;;-145.37;77.19
13486;BME280;6815;59.336;17.998;2023-04-01T05:59:11;52200.94;;;-145.37;77.02
13486;BME280;6815;59.336;17.998;2023-04-01T06:01:37;52208.94;;;-145.37;76.76
13486;BME280;6815;59.336;17.998;2023-04-01T06:04:02;52210.91;;;-145.37;77.28
13486;BME280;6815;59.336;17.998;2023-04-01T06:06:30;52218.91;;;-145.37;77.16
13486;BME280;6815;59.336;17.998;2023-04-01T06:09:01;52192.97;;;-145.37;76.71
13486;BME280;6815;59.336;17.998;2023-04-01T06:20:12;52175.00;;;-145.37;76.40
13486;BME280;6815;59.336;17.998;2023-04-01T06:53:20;52254.84;;;-145.37;73.16
13486;BME280;6815;59.336;17.998;2023-04-01T06:55:51;52190.97;;;-145.37;72.39
13486;BME280;6815;59.336;17.998;2023-04-01T06:58:22;52204.94;;;-145.37;71.63
13486;BME280;6815;59.336;17.998;2023-04-01T07:00:56;52220.91;;;-145.37;71.09
13486;BME280;6815;59.336;17.998;2023-04-01T07:03:35;52188.97;;;-145.37;70.11
13486;BME280;6815;59.336;17.998;2023-04-01T07:06:05;52232.88;;;-145.37;69.71
13486;BME280;6815;59.336;17.998;2023-04-01T07:08:35;52262.81;;;-145.37;69.11
13486;BME280;6815;59.336;17.998;2023-04-01T07:11:04;52206.94;;;-145.37;68.58
13486;BME280;6815;59.336;17.998;2023-04-01T07:13:42;52204.94;;;-145.37;69.15
13486;BME280;6815;59.336;17.998;2023-04-01T07:24:51;52186.97;;;-145.37;69.15
13486;BME280;6815;59.336;17.998;2023-04-01T07:27:17;52222.91;;;-145.37;69.09
13486;BME280;6815;59.336;17.998;2023-04-01T07:29:43;52240.88;;;-145.37;68.66
13486;BME280;6815;59.336;17.998;2023-04-01T07:41:08;52222.91;;;-145.37;67.71
13486;BME280;6815;59.336;17.998;2023-04-01T07:46:56;52218.91;;;-145.37;67.02
13486;BME280;6815;59.336;17.998;2023-04-01T07:52:46;52220.91;;;-145.37;67.10
13486;BME280;6815;59.336;17.998;2023-04-01T08:00:24;52232.88;;;-145.37;66.75
13486;BME280;6815;59.336;17.998;2023-04-01T08:05:56;52258.84;;;-145.37;66.19
13486;BME280;6815;59.336;17.998;2023-04-01T08:25:05;52228.88;;;-145.37;65.67
13486;BME280;6815;59.336;17.998;2023-04-01T08:27:44;52228.88;;;-145.37;65.85
13486;BME280;6815;59.336;17.998;2023-04-01T08:33:35;52252.84;;;-145.37;65.73
13486;BME280;6815;59.336;17.998;2023-04-01T08:36:19;52222.91;;;-145.37;64.77
13486;BME280;6815;59.336;17.998;2023-04-01T08:39:12;52276.81;;;-145.37;64.61
13486;BME280;6815;59.336;17.998;2023-04-01T08:56:39;52202.94;;;-145.37;61.96
13486;BME280;6815;59.336;17.998;2023-04-01T08:59:31;52244.84;;;-145.37;61.62
13486;BME280;6815;59.336;17.998;2023-04-01T09:08:42;52244.84;;;-145.37;61.06
13486;BME280;6815;59.336;17.998;2023-04-01T09:12:13;52232.88;;;-145.37;61.27
13486;BME280;6815;59.336;17.998;2023-04-01T09:15:20;52236.88;;;-145.37;61.16
13486;BME280;6815;59.336;17.998;2023-04-01T09:32:38;52232.88;;;-145.37;60.29
13486;BME280;6815;59.336;17.998;2023-04-01T09:38:22;52228.88;;;-145.37;60.21
13486;BME280;6815;59.336;17.998;2023-04-01T09:41:31;52226.91;;;-145.37;59.66
13486;BME280;6815;59.336;17.998;2023-04-01T09:49:48;52228.88;;;-145.37;58.85
13486;BME280;6815;59.336;17.998;2023-04-01T09:52:38;52260.84;;;-145.37;58.69
13486;BME280;6815;59.336;17.998;2023-04-01T10:01:05;52252.84;;;-145.37;57.15
13486;BME280;6815;59.336;17.998;2023-04-01T10:10:27;52276.81;;;-145.37;56.43
13486;BME280;6815;59.336;17.998;2023-04-01T10:13:39;52220.91;;;-145.37;56.43
13486;BME280;6815;59.336;17.998;2023-04-01T10:52:23;52258.84;;;-145.37;48.34
13486;BME280;6815;59.336;17.998;2023-04-01T11:01:35;52282.78;;;-145.37;49.98
13486;BME280;6815;59.336;17.998;2023-04-01T11:36:00;52246.84;;;-145.37;43.36
13486;BME280;6815;59.336;17.998;2023-04-01T11:42:14;52149.03;;;-145.37;43.15
13486;BME280;6815;59.336;17.998;2023-04-01T11:51:17;52282.78;;;-145.37;42.88
13486;BME280;6815;59.336;17.998;2023-04-01T11:54:12;52224.91;;;-145.37;42.44
13486;BME280;6815;59.336;17.998;2023-04-01T12:02:16;52224.91;;;-145.37;42.52
13486;BME280;6815;59.336;17.998;2023-04-01T12:10:19;52276.81;;;-145.37;42.68
13486;BME280;6815;59.336;17.998;2023-04-01T12:15:34;52212.91;;;-145.37;42.96
13486;BME280;6815;59.336;17.998;2023-04-01T12:37:54;52252.84;;;-145.37;43.63
13486;BME280;6815;59.336;17.998;2023-04-01T12:57:14;52254.84;;;-145.37;42.50
13486;BME280;6815;59.336;17.998;2023-04-01T13:08:23;52242.88;;;-145.37;42.78
13486;BME280;6815;59.336;17.998;2023-04-01T13:16:26;52272.81;;;-145.37;42.47
13486;BME280;6815;59.336;17.998;2023-04-01T13:19:03;52216.91;;;-145.37;42.65
13486;BME280;6815;59.336;17.998;2023-04-01T13:32:48;52232.88;;;-145.37;42.18
13486;BME280;6815;59.336;17.998;2023-04-01T13:38:57;52228.88;;;-145.37;42.86
13486;BME280;6815;59.336;17.998;2023-04-01T13:43:57;52218.91;;;-145.37;43.17
13486;BME280;6815;59.336;17.998;2023-04-01T13:49:11;52234.88;;;-145.37;43.58
13486;BME280;6815;59.336;17.998;2023-04-01T14:08:55;52246.84;;;-145.37;43.25
13486;BME280;6815;59.336;17.998;2023-04-01T14:11:41;52236.88;;;-145.37;43.01
13486;BME280;6815;59.336;17.998;2023-04-01T14:35:41;52250.84;;;-145.37;40.18
13486;BME280;6815;59.336;17.998;2023-04-01T14:44:05;52250.84;;;-145.37;40.46
13486;BME280;6815;59.336;17.998;2023-04-01T14:49:24;52266.81;;;-145.37;40.18
13486;BME280;6815;59.336;17.998;2023-04-01T14:51:55;52240.88;;;-145.37;40.72
13486;BME280;6815;59.336;17.998;2023-04-01T14:54:37;52224.91;;;-145.37;39.70
13486;BME280;6815;59.336;17.998;2023-04-01T14:59:48;52224.91;;;-145.37;40.58
13486;BME280;6815;59.336;17.998;2023-04-01T15:05:13;52258.84;;;-145.37;40.61
13486;BME280;6815;59.336;17.998;2023-04-01T15:10:37;52214.91;;;-145.37;40.95
13486;BME280;6815;59.336;17.998;2023-04-01T15:13:13;52220.91;;;-145.37;40.43
13486;BME280;6815;59.336;17.998;2023-04-01T15:21:59;52196.94;;;-145.37;39.68
13486;BME280;6815;59.336;17.998;2023-04-01T15:24:47;52206.94;;;-145.37;39.60
13486;BME280;6815;59.336;17.998;2023-04-01T15:27:44;52260.84;;;-145.37;39.60
13486;BME280;6815;59.336;17.998;2023-04-01T15:43:55;52248.84;;;-145.37;40.06
13486;BME280;6815;59.336;17.998;2023-04-01T15:52:06;52252.84;;;-145.37;40.05
13486;BME280;6815;59.336;17.998;2023-04-01T15:54:57;52234.88;;;-145.37;40.67
13486;BME280;6815;59.336;17.998;2023-04-01T16:00:29;52266.81;;;-145.37;40.01
13486;BME280;6815;59.336;17.998;2023-04-01T16:26:57;52175.00;;;-145.37;39.47
13486;BME280;6815;59.336;17.998;2023-04-01T16:29:43;52232.88;;;-145.37;39.57
13486;BME280;6815;59.336;17.998;2023-04-01T16:38:14;52250.84;;;-145.37;40.50
13486;BME280;6815;59.336;17.998;2023-04-01T16:43:44;52256.84;;;-145.37;40.55
13486;BME280;6815;59.336;17.998;2023-04-01T16:46:37;52204.94;;;-145.37;41.10
13486;BME280;6815;59.336;17.998;2023-04-01T16:49:23;52240.88;;;-145.37;41.14
13486;BME280;6815;59.336;17.998;2023-04-01T16:55:16;52202.94;;;-145.37;41.30
13486;BME280;6815;59.336;17.998;2023-04-01T16:58:00;52252.84;;;-145.37;41.25
13486;BME280;6815;59.336;17.998;2023-04-01T17:00:49;52222.91;;;-145.37;41.30
13486;BME280;6815;59.336;17.998;2023-04-01T17:03:44;52268.81;;;-145.37;41.62
13486;BME280;6815;59.336;17.998;2023-04-01T17:06:28;52188.97;;;-145.37;41.79
13486;BME280;6815;59.336;17.998;2023-04-01T17:09:28;52177.00;;;-145.37;41.90
13486;BME280;6815;59.336;17.998;2023-04-01T17:17:45;52244.84;;;-145.37;42.47
13486;BME280;6815;59.336;17.998;2023-04-01T17:23:41;52250.84;;;-145.37;42.73
13486;BME280;6815;59.336;17.998;2023-04-01T17:37:30;52206.94;;;-145.37;44.11
13486;BME280;6815;59.336;17.998;2023-04-01T17:40:15;52226.91;;;-145.37;44.44
13486;BME280;6815;59.336;17.998;2023-04-01T17:45:53;52232.88;;;-145.37;47.51
13486;BME280;6815;59.336;17.998;2023-04-01T17:48:57;52212.91;;;-145.37;48.34
13486;BME280;6815;59.336;17.998;2023-04-01T18:01:13;52204.94;;;-145.37;49.90
13486;BME280;6815;59.336;17.998;2023-04-01T18:04:08;52214.91;;;-145.37;49.97
13486;BME280;6815;59.336;17.998;2023-04-01T18:07:09;52224.91;;;-145.37;50.11
13486;BME280;6815;59.336;17.998;2023-04-01T18:21:36;52182.97;;;-145.37;50.63
13486;BME280;6815;59.336;17.998;2023-04-01T18:24:02;52228.88;;;-145.37;50.74
13486;BME280;6815;59.336;17.998;2023-04-01T18:26:38;52230.88;;;-145.37;50.51
13486;BME280;6815;59.336;17.998;2023-04-01T18:31:55;52216.91;;;-145.37;50.64
13486;BME280;6815;59.336;17.998;2023-04-01T18:36:09;52232.88;;;-145.37;50.76
13486;BME280;6815;59.336;17.998;2023-04-01T18:38:33;52234.88;;;-145.37;50.82
13486;BME280;6815;59.336;17.998;2023-04-01T18:52:57;52214.91;;;-145.37;50.55
13486;BME280;6815;59.336;17.998;2023-04-01T18:55:35;52204.94;;;-145.37;51.01
13486;BME280;6815;59.336;17.998;2023-04-01T19:04:26;52202.94;;;-145.37;50.72
13486;BME280;6815;59.336;17.998;2023-04-01T19:06:58;52212.91;;;-145.37;50.84
13486;BME280;6815;59.336;17.998;2023-04-01T19:09:49;52212.91;;;-145.37;51.15
13486;BME280;6815;59.336;17.998;2023-04-01T19:25:02;52238.88;;;-145.37;52.22
13486;BME280;6815;59.336;17.998;2023-04-01T19:28:02;52250.84;;;-145.37;52.52
13486;BME280;6815;59.336;17.998;2023-04-01T19:30:42;52198.94;;;-145.37;52.71
13486;BME280;6815;59.336;17.998;2023-04-01T19:42:35;52198.94;;;-145.37;53.73
13486;BME280;6815;59.336;17.998;2023-04-01T19:45:49;52214.91;;;-145.37;53.49
13486;BME280;6815;59.336;17.998;2023-04-01T19:48:43;52250.84;;;-145.37;53.87
13486;BME280;6815;59.336;17.998;2023-04-01T19:51:37;52198.94;;;-145.37;53.59
13486;BME280;6815;59.336;17.998;2023-04-01T19:54:50;52212.91;;;-145.37;53.33
13486;BME280;6815;59.336;17.998;2023-04-01T20:06:13;52208.94;;;-145.37;54.09
13486;BME280;6815;59.336;17.998;2023-04-01T20:12:01;52196.94;;;-145.37;54.89
13486;BME280;6815;59.336;17.998;2023-04-01T20:20:17;52180.97;;;-145.37;55.71
13486;BME280;6815;59.336;17.998;2023-04-01T20:28:00;52177.00;;;-145.37;56.90
13486;BME280;6815;59.336;17.998;2023-04-01T20:39:20;52220.91;;;-145.37;56.33
13486;BME280;6815;59.336;17.998;2023-04-01T20:42:13;52242.88;;;-145.37;57.39
13486;BME280;6815;59.336;17.998;2023-04-01T20:47:51;52218.91;;;-145.37;57.55
13486;BME280;6815;59.336;17.998;2023-04-01T20:53:28;52222.91;;;-145.37;58.25
13486;BME280;6815;59.336;17.998;2023-04-01T20:58:58;52218.91;;;-145.37;57.82
13486;BME280;6815;59.336;17.998;2023-04-01T21:01:47;52214.91;;;-145.37;58.39
13486;BME280;6815;59.336;17.998;2023-04-01T21:18:59;52226.91;;;-145.37;59.47
13486;BME280;6815;59.336;17.998;2023-04-01T21:44:15;52194.94;;;-145.37;61.41
13486;BME280;6815;59.336;17.998;2023-04-01T21:52:38;52204.94;;;-145.37;60.87
13486;BME280;6815;59.336;17.998;2023-04-01T22:03:56;52194.94;;;-145.37;61.21
13486;BME280;6815;59.336;17.998;2023-04-01T22:14:42;52222.91;;;-145.37;61.79
13486;BME280;6815;59.336;17.998;2023-04-01T22:17:28;52190.97;;;-145.37;61.73
13486;BME280;6815;59.336;17.998;2023-04-01T22:20:15;52200.94;;;-145.37;61.24
13486;BME280;6815;59.336;17.998;2023-04-01T22:31:21;52149.03;;;-145.37;61.54
13486;BME280;6815;59.336;17.998;2023-04-01T22:39:40;52212.91;;;-145.37;61.49
13486;BME280;6815;59.336;17.998;2023-04-01T22:42:41;52208.94;;;-145.37;61.54
13486;BME280;6815;59.336;17.998;2023-04-01T22:55:57;52180.97;;;-145.37;62.08
13486;BME280;6815;59.336;17.998;2023-04-01T22:58:35;52206.94;;;-145.37;62.13
13486;BME280;6815;59.336;17.998;2023-04-01T23:01:26;52175.00;;;-145.37;62.10
13486;BME280;6815;59.336;17.998;2023-04-01T23:03:55;52178.97;;;-145.37;62.11
13486;BME280;6815;59.336;17.998;2023-04-01T23:06:31;52212.91;;;-145.37;61.70
13486;BME280;6815;59.336;17.998;2023-04-01T23:09:10;52226.91;;;-145.37;61.79
13486;BME280;6815;59.336;17.998;2023-04-01T23:11:58;52230.88;;;-145.37;62.49
13486;BME280;6815;59.336;17.998;2023-04-01T23:14:55;52206.94;;;-145.37;61.78
13486;BME280;6815;59.336;17.998;2023-04-01T23:17:49;52173.00;;;-145.37;61.70
13486;BME280;6815;59.336;17.998;2023-04-01T23:28:59;52196.94;;;-145.37;62.34
13486;BME280;6815;59.336;17.998;2023-04-01T23:31:42;52200.94;;;-145.37;62.71
13486;BME280;6815;59.336;17.998;2023-04-01T23:34:32;52188.97;;;-145.37;62.91
13486;BME280;6815;59.336;17.998;2023-04-01T23:37:05;52206.94;;;-145.37;61.92
13486;BME280;6815;59.336;17.998;2023-04-01T23:39:38;52200.94;;;-145.37;62.02
13486;BME280;6815;59.336;17.998;2023-04-01T23:42:07;52212.91;;;-145.37;61.58
13486;BME280;6815;59.336;17.998;2023-04-01T23:44:38;52212.91;;;-145.37;61.99
13486;BME280;6815;59.336;17.998;2023-04-01T23:47:06;52175.00;;;-145.37;61.59
13486;BME280;6815;59.336;17.998;2023-04-01T23:49:45;52238.88;;;-145.37;61.63
13486;BME280;6815;59.336;17.998;2023-04-01T23:54:54;52214.91;;;-145.37;62.10
13486;BME280;6815;59.336;17.998;2023-04-01T23:57:32;52212.91;;;-145.37;62.07
